Time;durP1;ratioP1;P1;durP2;ratioP2;P2;SDS_P1;SDS_P2;PMS_P1;PMS_P2;Temp;Humidity;BMP_temperature;BMP_pressure;BME280_temperature;BME280_humidity;BME280_pressure;Samples;Min_cycle;Max_cycle;Signal;HPM_P1;HPM_P2
2022/01/29 00:01:04;;;;;;;59.17;29.15;;;;;;;-0.62;100.00;93576.34;5031011;28;20091;-77
2022/01/29 00:03:31;;;;;;;58.03;28.73;;;;;;;-0.63;100.00;93568.91;5031018;28;20048;-76
2022/01/29 00:05:59;;;;;;;53.33;28.02;;;;;;;-0.66;100.00;93572.50;5031104;28;20128;-77
2022/01/29 00:08:25;;;;;;;44.47;23.98;;;;;;;-0.78;100.00;93551.66;5031097;28;20042;-76
2022/01/29 00:11:00;;;;;;;43.20;20.67;;;;;;;-0.66;100.00;93569.19;5030700;28;20120;-76
2022/01/29 00:13:27;;;;;;;31.52;17.30;;;;;;;-0.70;100.00;93561.88;5030730;28;20114;-77
2022/01/29 00:15:54;;;;;;;32.63;16.83;;;;;;;-0.70;100.00;93563.59;5027530;28;20045;-76
2022/01/29 00:18:20;;;;;;;27.92;15.32;;;;;;;-0.83;100.00;93559.59;5030316;28;20045;-77
2022/01/29 00:20:47;;;;;;;31.58;15.25;;;;;;;-0.82;100.00;93565.44;5030666;28;20037;-77
2022/01/29 00:23:14;;;;;;;22.85;12.45;;;;;;;-0.82;100.00;93570.50;5028291;28;20045;-76
2022/01/29 00:25:41;;;;;;;35.30;15.95;;;;;;;-0.89;100.00;93572.72;5030959;28;20049;-77
2022/01/29 00:28:09;;;;;;;32.35;16.05;;;;;;;-0.92;100.00;93573.00;5031342;28;20048;-77
2022/01/29 00:30:39;;;;;;;46.30;20.73;;;;;;;-0.96;100.00;93569.91;5031147;28;20542;-77
2022/01/29 00:33:06;;;;;;;41.28;19.23;;;;;;;-0.97;100.00;93570.84;5030923;28;20069;-76
2022/01/29 00:35:33;;;;;;;36.97;18.58;;;;;;;-0.97;100.00;93557.47;5030938;28;20046;-76
2022/01/29 00:38:00;;;;;;;42.30;21.83;;;;;;;-0.85;100.00;93553.09;5031105;28;20442;-77
2022/01/29 00:40:27;;;;;;;45.60;21.70;;;;;;;-0.95;100.00;93556.41;5030776;28;20474;-77
2022/01/29 00:42:54;;;;;;;55.10;24.73;;;;;;;-0.97;100.00;93537.28;5030842;28;20056;-77
2022/01/29 00:45:22;;;;;;;62.35;27.15;;;;;;;-0.79;100.00;93565.16;5030621;28;20555;-77
2022/01/29 00:47:49;;;;;;;53.05;22.95;;;;;;;-0.73;100.00;93563.84;5030373;28;20053;-77
2022/01/29 00:50:16;;;;;;;55.03;22.67;;;;;;;-0.69;100.00;93560.16;5030647;28;20053;-77
2022/01/29 00:52:43;;;;;;;48.35;23.13;;;;;;;-0.69;100.00;93565.19;5030725;28;20050;-77
2022/01/29 00:55:12;;;;;;;42.25;22.25;;;;;;;-0.71;100.00;93565.31;5030538;28;20057;-76
2022/01/29 00:57:40;;;;;;;51.22;24.13;;;;;;;-0.68;100.00;93570.09;5030731;28;20092;-77
2022/01/29 01:00:09;;;;;;;51.45;26.05;;;;;;;-0.63;100.00;93566.38;5030273;28;20045;-77
2022/01/29 01:02:38;;;;;;;58.97;28.00;;;;;;;-0.71;100.00;93562.00;5030224;28;20045;-77
2022/01/29 01:05:05;;;;;;;58.97;28.08;;;;;;;-0.67;100.00;93565.84;5029999;28;20049;-76
2022/01/29 01:07:32;;;;;;;64.30;31.77;;;;;;;-0.66;100.00;93566.66;5030074;28;20053;-77
2022/01/29 01:09:59;;;;;;;61.08;30.80;;;;;;;-0.69;100.00;93562.69;5030117;28;20087;-76
2022/01/29 01:12:26;;;;;;;65.75;33.97;;;;;;;-0.69;100.00;93560.94;5030479;28;20049;-76
2022/01/29 01:14:53;;;;;;;65.68;32.65;;;;;;;-0.70;100.00;93564.38;5029992;28;20576;-77
2022/01/29 01:17:20;;;;;;;58.88;29.83;;;;;;;-0.69;100.00;93547.53;5030207;28;20100;-76
2022/01/29 01:19:48;;;;;;;40.50;20.65;;;;;;;-1.38;100.00;93514.66;5030218;28;20116;-76
2022/01/29 01:22:16;;;;;;;43.53;21.48;;;;;;;-1.04;100.00;93552.13;5030176;28;20049;-77
2022/01/29 01:24:43;;;;;;;48.60;23.88;;;;;;;-0.94;100.00;93544.59;5030374;28;20065;-76
2022/01/29 01:27:10;;;;;;;49.80;22.50;;;;;;;-1.00;100.00;93533.31;5030342;28;20053;-77
2022/01/29 01:29:37;;;;;;;40.08;18.85;;;;;;;-0.95;100.00;93535.44;5028728;28;20045;-76
2022/01/29 01:32:05;;;;;;;41.58;19.67;;;;;;;-0.84;100.00;93540.34;5029717;28;20485;-76
2022/01/29 01:34:37;;;;;;;48.05;24.55;;;;;;;-0.81;100.00;93542.63;5029299;28;20081;-76
2022/01/29 01:37:10;;;;;;;57.63;28.65;;;;;;;-0.73;100.00;93541.16;5029807;28;20055;-77
2022/01/29 01:39:39;;;;;;;50.83;25.65;;;;;;;-0.69;100.00;93545.00;5029867;28;20087;-77
2022/01/29 01:42:07;;;;;;;61.58;29.58;;;;;;;-0.90;100.00;93505.56;5029494;28;20056;-77
2022/01/29 01:44:36;;;;;;;58.70;28.35;;;;;;;-0.62;100.00;93547.78;5029878;28;20086;-77
2022/01/29 01:47:04;;;;;;;61.03;30.02;;;;;;;-0.72;100.00;93535.97;5029798;28;20060;-76
2022/01/29 01:49:30;;;;;;;54.83;29.77;;;;;;;-0.63;100.00;93543.66;5029453;28;20056;-76
2022/01/29 01:51:58;;;;;;;62.63;28.67;;;;;;;-0.58;100.00;93542.38;5029501;28;20049;-76
2022/01/29 01:54:26;;;;;;;61.78;28.13;;;;;;;-0.60;100.00;93541.69;5029747;28;20056;-76
2022/01/29 01:56:53;;;;;;;62.92;29.33;;;;;;;-0.60;100.00;93521.50;5029640;28;20045;-76
2022/01/29 01:59:21;;;;;;;61.65;25.70;;;;;;;-0.50;100.00;93540.88;5029681;28;20409;-76
2022/01/29 02:01:48;;;;;;;85.97;33.38;;;;;;;-0.54;100.00;93546.19;5029475;28;20049;-76
2022/01/29 02:04:14;;;;;;;69.55;30.38;;;;;;;-0.58;100.00;93547.41;5029271;28;20107;-76
2022/01/29 02:06:41;;;;;;;58.13;27.33;;;;;;;-0.62;100.00;93528.41;5029191;28;20056;-76
2022/01/29 02:09:08;;;;;;;58.17;27.10;;;;;;;-0.60;100.00;93529.06;5029623;28;20517;-76
2022/01/29 02:11:39;;;;;;;50.97;24.10;;;;;;;-0.51;100.00;93540.09;5029269;28;20045;-76
2022/01/29 02:14:10;;;;;;;54.03;25.13;;;;;;;-0.50;100.00;93539.16;5029553;28;20072;-76
2022/01/29 02:16:38;;;;;;;51.28;24.00;;;;;;;-0.52;100.00;93540.25;5029208;28;20049;-76
2022/01/29 02:19:05;;;;;;;55.85;24.27;;;;;;;-0.48;100.00;93537.31;5029036;28;20084;-76
2022/01/29 02:21:37;;;;;;;60.28;27.77;;;;;;;-0.43;100.00;93540.22;5029076;28;20053;-76
2022/01/29 02:24:04;;;;;;;59.08;26.45;;;;;;;-0.47;100.00;93535.59;5029468;28;20052;-76
2022/01/29 02:26:31;;;;;;;54.85;25.25;;;;;;;-0.49;100.00;93550.84;5029182;28;20053;-76
2022/01/29 02:28:58;;;;;;;48.05;22.08;;;;;;;-0.49;100.00;93547.53;5029427;28;20049;-76
2022/01/29 02:31:25;;;;;;;44.47;22.13;;;;;;;-0.63;100.00;93541.97;5029073;28;20509;-76
2022/01/29 02:33:52;;;;;;;45.22;20.65;;;;;;;-0.65;100.00;93545.53;5028816;28;20535;-76
2022/01/29 02:36:19;;;;;;;40.60;19.35;;;;;;;-0.62;100.00;93545.25;5029108;28;20050;-76
2022/01/29 02:38:47;;;;;;;38.08;19.50;;;;;;;-0.76;100.00;93522.03;5029157;28;20049;-76
2022/01/29 02:41:14;;;;;;;51.05;23.85;;;;;;;-0.76;100.00;93523.75;5032576;28;20049;-76
2022/01/29 02:43:46;;;;;;;53.75;24.52;;;;;;;-0.70;100.00;93544.22;5032942;28;20045;-76
2022/01/29 02:46:27;;;;;;;50.80;22.65;;;;;;;-0.69;100.00;93543.28;5033003;28;20405;-76
2022/01/29 02:48:56;;;;;;;47.53;20.70;;;;;;;-0.73;100.00;93544.50;5032833;28;20058;-76
2022/01/29 02:51:23;;;;;;;99.70;37.30;;;;;;;-0.71;100.00;93552.72;5032715;28;20056;-76
2022/01/29 02:53:51;;;;;;;43.80;17.52;;;;;;;-0.75;100.00;93553.13;5032511;28;20045;-76
2022/01/29 02:56:18;;;;;;;52.80;20.80;;;;;;;-0.79;100.00;93559.34;5032682;28;20049;-76
2022/01/29 02:58:46;;;;;;;42.58;19.58;;;;;;;-0.78;100.00;93554.19;5032550;28;20048;-76
2022/01/29 03:01:13;;;;;;;50.33;20.75;;;;;;;-0.81;100.00;93545.16;5024178;28;20042;-76
2022/01/29 03:03:40;;;;;;;43.45;20.27;;;;;;;-0.70;100.00;93556.81;5011085;28;20417;-76
2022/01/29 03:06:09;;;;;;;42.15;18.45;;;;;;;-0.61;100.00;93559.50;5012233;28;20444;-76
2022/01/29 03:08:37;;;;;;;48.63;20.42;;;;;;;-0.64;100.00;93553.00;5012426;28;20060;-76
2022/01/29 03:11:05;;;;;;;41.08;20.13;;;;;;;-0.69;100.00;93542.50;5012891;28;20390;-76
2022/01/29 03:13:32;;;;;;;45.30;19.52;;;;;;;-0.69;100.00;93530.66;5012729;28;20046;-76
2022/01/29 03:15:59;;;;;;;41.55;19.52;;;;;;;-0.45;100.00;93567.34;5012834;28;20050;-77
2022/01/29 03:18:26;;;;;;;52.03;22.50;;;;;;;-0.41;100.00;93573.69;5012370;28;20045;-77
2022/01/29 03:20:53;;;;;;;50.85;22.05;;;;;;;-0.37;100.00;93563.34;5012310;28;20042;-77
2022/01/29 03:23:19;;;;;;;49.63;20.63;;;;;;;-0.38;100.00;93559.22;5012536;28;20498;-78
2022/01/29 03:25:46;;;;;;;50.83;21.23;;;;;;;-0.42;100.00;93556.97;5012686;28;20050;-78
2022/01/29 03:28:15;;;;;;;51.88;22.17;;;;;;;-0.38;100.00;93561.75;5012132;28;20045;-78
2022/01/29 03:30:41;;;;;;;47.97;21.98;;;;;;;-0.62;100.00;93530.94;5012594;28;20479;-78
2022/01/29 03:33:08;;;;;;;46.30;20.85;;;;;;;-0.37;100.00;93573.44;5012417;28;20053;-78
2022/01/29 03:35:35;;;;;;;53.83;22.27;;;;;;;-0.43;100.00;93562.94;5012633;28;20061;-78
2022/01/29 03:38:02;;;;;;;74.13;31.35;;;;;;;-0.38;100.00;93571.84;5012317;28;20065;-78
2022/01/29 03:40:30;;;;;;;82.22;34.85;;;;;;;-0.56;100.00;93563.19;5012021;28;20045;-78
2022/01/29 03:43:02;;;;;;;75.72;34.15;;;;;;;-0.48;100.00;93571.81;5012666;28;20046;-78
2022/01/29 03:45:30;;;;;;;73.18;31.75;;;;;;;-0.45;100.00;93566.53;5012320;28;20218;-77
2022/01/29 03:47:57;;;;;;;69.63;30.27;;;;;;;-0.56;100.00;93552.28;5012228;28;20053;-76
2022/01/29 03:50:24;;;;;;;59.60;27.23;;;;;;;-0.63;100.00;93553.75;5011589;28;20057;-78
2022/01/29 03:52:51;;;;;;;48.25;22.17;;;;;;;-0.72;100.00;93562.94;5011280;28;20049;-76
2022/01/29 03:55:18;;;;;;;43.85;20.67;;;;;;;-0.76;100.00;93562.41;5011773;28;20494;-76
2022/01/29 03:57:45;;;;;;;28.80;14.35;;;;;;;-0.96;100.00;93562.34;5011877;28;20053;-77
2022/01/29 04:00:13;;;;;;;22.52;11.90;;;;;;;-0.95;100.00;93569.03;5011693;28;20042;-77
2022/01/29 04:02:42;;;;;;;20.77;10.13;;;;;;;-1.05;100.00;93569.91;5011969;28;20057;-78
2022/01/29 04:05:09;;;;;;;18.10;10.52;;;;;;;-1.05;100.00;93560.63;5011680;28;20886;-77
2022/01/29 04:07:36;;;;;;;24.75;13.13;;;;;;;-1.09;100.00;93547.50;5011570;28;20053;-77
2022/01/29 04:10:04;;;;;;;22.52;11.75;;;;;;;-1.11;100.00;93544.28;5011665;28;20076;-77
2022/01/29 04:12:37;;;;;;;24.30;12.05;;;;;;;-1.19;100.00;93535.78;5011274;28;20061;-78
2022/01/29 04:15:04;;;;;;;24.45;12.40;;;;;;;-0.93;100.00;93543.66;5011775;28;20053;-78
2022/01/29 04:17:30;;;;;;;21.25;12.20;;;;;;;-0.83;100.00;93546.97;5011374;28;20046;-77
2022/01/29 04:19:59;;;;;;;22.58;12.27;;;;;;;-0.77;100.00;93549.91;5011685;28;20046;-76
2022/01/29 04:22:26;;;;;;;21.42;12.20;;;;;;;-0.73;100.00;93553.78;5011359;28;20046;-77
2022/01/29 04:24:52;;;;;;;29.50;14.95;;;;;;;-0.75;100.00;93541.28;5011486;28;20061;-78
2022/01/29 04:27:23;;;;;;;26.42;15.13;;;;;;;-0.68;100.00;93554.16;5011509;28;20057;-78
2022/01/29 04:29:56;;;;;;;26.40;13.48;;;;;;;-0.71;100.00;93562.81;5011063;28;20045;-79
2022/01/29 04:32:31;;;;;;;22.98;12.85;;;;;;;-0.64;100.00;93563.06;5011467;28;20433;-78
2022/01/29 04:34:59;;;;;;;24.88;13.35;;;;;;;-0.56;100.00;93563.19;5011361;28;20607;-78
2022/01/29 04:37:26;;;;;;;22.10;10.85;;;;;;;-0.53;100.00;93562.13;5011216;28;20053;-78
2022/01/29 04:39:53;;;;;;;19.27;9.88;;;;;;;-0.51;100.00;93551.91;5010993;28;20049;-78
2022/01/29 04:42:20;;;;;;;21.83;12.00;;;;;;;-0.52;100.00;93558.69;5011038;28;20050;-77
2022/01/29 04:44:47;;;;;;;18.08;11.35;;;;;;;-0.43;100.00;93562.13;5010885;28;20501;-78
2022/01/29 04:47:13;;;;;;;25.02;14.27;;;;;;;-0.51;100.00;93552.69;5028392;28;20049;-77
2022/01/29 04:49:40;;;;;;;24.95;14.60;;;;;;;-0.48;100.00;93560.00;5030762;28;20053;-78
2022/01/29 04:52:08;;;;;;;30.50;13.43;;;;;;;-0.54;100.00;93560.56;5030684;28;20049;-77
2022/01/29 04:54:35;;;;;;;30.45;17.02;;;;;;;-0.50;100.00;93561.06;5030493;28;20049;-76
2022/01/29 04:57:02;;;;;;;36.92;17.23;;;;;;;-0.52;100.00;93551.13;5029723;28;20053;-76
2022/01/29 04:59:29;;;;;;;27.30;14.25;;;;;;;-0.43;100.00;93565.47;5029728;28;20909;-77
2022/01/29 05:01:56;;;;;;;31.52;15.40;;;;;;;-0.47;100.00;93550.72;5029852;28;20052;-76
2022/01/29 05:04:23;;;;;;;28.83;13.60;;;;;;;-0.42;100.00;93566.25;5026845;28;20561;-75
2022/01/29 05:06:49;;;;;;;30.23;14.35;;;;;;;-0.42;100.00;93551.09;5029449;28;20060;-76
2022/01/29 05:09:18;;;;;;;33.22;16.20;;;;;;;-0.43;100.00;93555.38;5029923;28;20076;-76
2022/01/29 05:11:48;;;;;;;34.17;18.70;;;;;;;-0.44;100.00;93558.81;5029983;28;20493;-76
2022/01/29 05:14:24;;;;;;;63.22;30.40;;;;;;;-0.39;100.00;93568.50;5029955;28;20049;-76
2022/01/29 05:17:19;;;;;;;108.47;50.67;;;;;;;-0.37;100.00;93571.69;5029775;28;20048;-76
2022/01/29 05:27:54;;;;;;;44.22;23.60;;;;;;;-0.30;100.00;93582.88;5029687;28;20064;-76
2022/01/29 05:30:21;;;;;;;41.20;21.20;;;;;;;-0.36;100.00;93575.03;5029794;28;20045;-75
2022/01/29 05:32:48;;;;;;;45.72;21.92;;;;;;;-0.32;100.00;93581.41;5029863;28;20045;-75
2022/01/29 05:35:14;;;;;;;46.90;23.40;;;;;;;-0.32;100.00;93577.13;5029848;28;20048;-76
2022/01/29 05:37:41;;;;;;;42.92;22.38;;;;;;;-0.48;100.00;93566.78;5029730;28;20046;-76
2022/01/29 05:40:10;;;;;;;39.88;22.63;;;;;;;-0.48;100.00;93577.69;5029569;28;20527;-76
2022/01/29 05:42:37;;;;;;;42.88;23.13;;;;;;;-0.41;100.00;93586.31;5029922;28;20129;-76
2022/01/29 05:45:04;;;;;;;40.53;21.73;;;;;;;-0.39;100.00;93588.69;5030042;28;20049;-76
2022/01/29 05:47:31;;;;;;;35.65;19.45;;;;;;;-0.55;100.00;93587.50;5029225;28;20053;-76
2022/01/29 05:49:58;;;;;;;32.25;19.05;;;;;;;-0.68;100.00;93582.69;5029589;28;20053;-76
2022/01/29 05:52:25;;;;;;;20.40;12.68;;;;;;;-0.71;100.00;93593.06;5029407;28;20064;-76
2022/01/29 05:54:52;;;;;;;33.33;17.15;;;;;;;-0.92;100.00;93588.13;5029365;28;20056;-76
2022/01/29 05:57:20;;;;;;;16.35;9.20;;;;;;;-1.26;100.00;93571.59;5029659;28;20049;-76
2022/01/29 05:59:47;;;;;;;21.40;12.32;;;;;;;-1.40;100.00;93569.41;5029286;28;20053;-76
2022/01/29 06:02:13;;;;;;;25.90;15.73;;;;;;;-1.62;100.00;93578.75;5029706;28;20072;-76
2022/01/29 06:04:40;;;;;;;12.88;9.55;;;;;;;-1.73;100.00;93554.44;5029292;28;20053;-76
2022/01/29 06:07:07;;;;;;;13.50;9.07;;;;;;;-1.51;100.00;93596.31;5029552;28;20053;-78
2022/01/29 06:09:34;;;;;;;13.32;9.23;;;;;;;-1.45;100.00;93589.97;5029154;28;20055;-77
2022/01/29 06:12:01;;;;;;;18.58;9.30;;;;;;;-1.42;100.00;93597.28;5029577;28;20045;-78
2022/01/29 06:14:29;;;;;;;16.50;10.38;;;;;;;-1.25;100.00;93607.69;5010282;28;20050;-78
2022/01/29 06:16:56;;;;;;;12.90;8.32;;;;;;;-1.18;100.00;93611.28;5009613;28;20054;-76
2022/01/29 06:19:23;;;;;;;17.20;10.18;;;;;;;-1.24;100.00;93614.31;5009659;28;20068;-76
2022/01/29 06:21:49;;;;;;;21.17;13.68;;;;;;;-1.18;100.00;93610.47;5009266;28;20137;-76
2022/01/29 06:24:16;;;;;;;14.25;9.35;;;;;;;-1.33;100.00;93615.06;5009375;28;20061;-76
2022/01/29 06:26:43;;;;;;;15.73;10.18;;;;;;;-1.29;100.00;93618.94;5014912;28;20050;-76
2022/01/29 06:29:10;;;;;;;18.55;11.48;;;;;;;-1.36;100.00;93621.97;5029086;28;20053;-77
2022/01/29 06:31:38;;;;;;;18.40;11.27;;;;;;;-1.26;100.00;93627.03;5028983;28;20045;-76
2022/01/29 06:34:05;;;;;;;15.07;10.32;;;;;;;-1.28;100.00;93630.59;5029242;28;20053;-76
2022/01/29 06:36:31;;;;;;;11.88;8.02;;;;;;;-1.29;100.00;93634.84;5029122;28;20053;-76
2022/01/29 06:38:58;;;;;;;14.45;9.45;;;;;;;-1.28;100.00;93633.13;5029307;28;21029;-76
2022/01/29 06:41:25;;;;;;;16.10;10.65;;;;;;;-1.08;100.00;93634.00;5028990;28;20049;-76
2022/01/29 06:43:52;;;;;;;20.90;12.63;;;;;;;-0.92;100.00;93637.75;5025806;28;20050;-76
2022/01/29 06:46:19;;;;;;;18.38;11.27;;;;;;;-0.82;100.00;93634.31;5026965;28;20045;-76
2022/01/29 06:48:47;;;;;;;18.88;10.25;;;;;;;-0.65;100.00;93636.38;5028712;28;20057;-76
2022/01/29 06:51:16;;;;;;;38.85;18.00;;;;;;;-0.50;100.00;93640.13;5028094;28;20559;-76
2022/01/29 06:53:43;;;;;;;24.17;13.45;;;;;;;-0.33;100.00;93648.75;5028424;28;20049;-76
2022/01/29 06:56:10;;;;;;;53.38;20.85;;;;;;;-0.43;100.00;93651.28;5028324;28;20152;-76
2022/01/29 06:58:37;;;;;;;13.32;7.82;;;;;;;-0.45;100.00;93649.81;5028369;28;20068;-76
2022/01/29 07:01:04;;;;;;;13.77;9.13;;;;;;;-0.71;100.00;93646.06;5026966;28;20213;-76
2022/01/29 07:03:31;;;;;;;8.82;6.82;;;;;;;-0.92;100.00;93641.09;5026965;28;20050;-76
2022/01/29 07:05:59;;;;;;;17.30;10.25;;;;;;;-0.97;100.00;93649.03;5026731;28;20057;-76
2022/01/29 07:08:26;;;;;;;14.48;9.32;;;;;;;-0.81;100.00;93640.19;5025715;28;20053;-77
2022/01/29 07:10:53;;;;;;;13.77;9.75;;;;;;;-0.83;100.00;93647.88;5027508;28;20056;-77
2022/01/29 07:13:21;;;;;;;9.77;7.03;;;;;;;-1.09;100.00;93652.56;5017490;28;20050;-77
2022/01/29 07:15:48;;;;;;;14.02;9.00;;;;;;;-1.21;100.00;93642.59;5006715;28;20054;-77
2022/01/29 07:18:15;;;;;;;13.20;8.60;;;;;;;-1.06;100.00;93633.88;5004909;28;20108;-77
2022/01/29 07:20:41;;;;;;;16.77;10.70;;;;;;;-0.83;100.00;93655.44;5007851;28;20050;-76
2022/01/29 07:23:10;;;;;;;19.92;12.07;;;;;;;-0.86;100.00;93654.91;5006138;28;20104;-76
2022/01/29 07:25:36;;;;;;;19.80;12.20;;;;;;;-0.70;100.00;93665.31;5007487;28;20050;-76
2022/01/29 07:28:04;;;;;;;17.75;10.55;;;;;;;-0.72;100.00;93654.56;5026872;28;20056;-76
2022/01/29 07:30:30;;;;;;;25.80;14.02;;;;;;;-0.51;100.00;93663.72;5028792;28;20056;-77
2022/01/29 07:32:57;;;;;;;15.02;10.25;;;;;;;-0.47;100.00;93659.25;5030629;28;20064;-76
2022/01/29 07:35:24;;;;;;;13.18;10.15;;;;;;;-0.47;100.00;93661.78;5031876;28;20065;-77
2022/01/29 07:37:51;;;;;;;15.32;9.60;;;;;;;-0.36;100.00;93670.94;5030124;28;20041;-77
2022/01/29 07:40:19;;;;;;;16.23;9.50;;;;;;;-0.29;100.00;93665.25;5030362;28;20136;-77
2022/01/29 07:42:46;;;;;;;16.55;8.93;;;;;;;-0.17;100.00;93678.53;5030610;28;20053;-76
2022/01/29 07:45:12;;;;;;;17.58;10.55;;;;;;;-0.19;100.00;93674.56;5028376;28;20456;-77
2022/01/29 07:47:39;;;;;;;10.30;6.45;;;;;;;-0.25;100.00;93672.53;5029955;28;20111;-78
2022/01/29 07:50:07;;;;;;;12.48;8.18;;;;;;;-0.21;100.00;93679.72;5029480;28;20525;-77
2022/01/29 07:52:33;;;;;;;12.80;8.55;;;;;;;-0.21;100.00;93677.22;5030212;28;20477;-77
2022/01/29 07:55:00;;;;;;;15.70;10.75;;;;;;;-0.37;100.00;93657.50;5028357;28;20057;-77
2022/01/29 07:57:28;;;;;;;14.95;9.32;;;;;;;-0.28;100.00;93673.59;5008941;28;20056;-77
2022/01/29 07:59:55;;;;;;;15.82;10.73;;;;;;;-0.21;100.00;93676.41;5010095;28;20108;-77
2022/01/29 08:02:22;;;;;;;12.98;9.43;;;;;;;-0.21;100.00;93676.41;5010438;28;20050;-77
2022/01/29 08:04:49;;;;;;;17.00;9.73;;;;;;;-0.56;100.00;93646.47;5010760;28;20050;-77
2022/01/29 08:07:15;;;;;;;14.48;9.65;;;;;;;-0.38;100.00;93668.53;5010998;28;20461;-77
2022/01/29 08:09:42;;;;;;;35.60;16.38;;;;;;;-0.16;100.00;93680.13;5009761;28;20124;-77
2022/01/29 08:12:10;;;;;;;11.93;8.75;;;;;;;-0.23;100.00;93684.09;5010867;28;20049;-77
2022/01/29 08:14:38;;;;;;;13.10;9.43;;;;;;;-0.18;100.00;93681.19;5010647;28;20042;-77
2022/01/29 08:17:05;;;;;;;11.35;7.78;;;;;;;-0.24;100.00;93684.25;5009865;28;20512;-77
2022/01/29 08:19:32;;;;;;;14.55;8.85;;;;;;;-0.57;100.00;93642.34;5010651;28;20054;-77
2022/01/29 08:21:59;;;;;;;13.35;9.30;;;;;;;-0.19;100.00;93687.97;5010304;28;20173;-77
2022/01/29 08:24:26;;;;;;;13.98;8.63;;;;;;;-0.37;100.00;93660.03;5010041;28;20046;-77
2022/01/29 08:26:53;;;;;;;18.83;9.68;;;;;;;-0.21;100.00;93696.59;5017674;28;20052;-77
2022/01/29 08:29:19;;;;;;;13.70;9.20;;;;;;;-0.39;100.00;93682.09;5030900;28;20053;-77
2022/01/29 08:31:47;;;;;;;10.75;7.72;;;;;;;-0.26;100.00;93694.47;5031118;28;20045;-77
2022/01/29 08:34:14;;;;;;;10.50;7.68;;;;;;;-0.10;100.00;93695.69;5030694;28;20535;-77
2022/01/29 08:36:41;;;;;;;12.55;10.45;;;;;;;-0.41;100.00;93681.44;5030622;28;20467;-77
2022/01/29 08:39:08;;;;;;;13.43;10.30;;;;;;;-0.57;100.00;93692.81;5030553;28;20052;-77
2022/01/29 08:41:35;;;;;;;11.70;7.60;;;;;;;-0.67;100.00;93681.91;5030889;28;20060;-77
2022/01/29 08:44:02;;;;;;;19.23;14.15;;;;;;;-0.41;100.00;93692.31;5031005;28;20045;-77
2022/01/29 08:46:29;;;;;;;13.63;9.43;;;;;;;-0.28;100.00;93686.22;5030851;28;20488;-77
2022/01/29 08:48:57;;;;;;;13.00;8.65;;;;;;;-0.14;100.00;93685.84;5030441;28;20505;-77
2022/01/29 08:51:24;;;;;;;11.43;7.13;;;;;;;-0.14;100.00;93695.13;5030441;28;20069;-77
2022/01/29 08:53:51;;;;;;;8.15;6.43;;;;;;;-0.12;100.00;93700.88;5030536;28;20072;-77
2022/01/29 08:56:17;;;;;;;12.35;7.85;;;;;;;-0.04;100.00;93695.94;5031053;28;20049;-77
2022/01/29 08:58:44;;;;;;;14.88;8.52;;;;;;;-0.05;100.00;93699.41;5030762;28;20049;-77
2022/01/29 09:01:12;;;;;;;10.05;7.78;;;;;;;-0.15;100.00;93691.03;5028636;28;20390;-77
2022/01/29 09:03:39;;;;;;;10.43;6.00;;;;;;;-0.06;100.00;93710.44;5027014;28;20557;-77
2022/01/29 09:06:07;;;;;;;8.55;6.38;;;;;;;-0.05;100.00;93694.34;5028220;28;20045;-78
2022/01/29 09:08:34;;;;;;;9.65;8.55;;;;;;;-0.04;100.00;93710.31;5029895;28;20136;-78
2022/01/29 09:11:01;;;;;;;11.02;8.52;;;;;;;0.22;100.00;93704.72;5030061;28;20049;-78
2022/01/29 09:13:28;;;;;;;9.45;7.32;;;;;;;0.13;100.00;93693.69;5030097;28;20041;-79
2022/01/29 09:15:56;;;;;;;9.82;7.13;;;;;;;0.16;100.00;93717.88;5030137;28;20068;-79
2022/01/29 09:18:24;;;;;;;11.60;7.13;;;;;;;0.20;100.00;93717.50;5030310;28;20046;-80
2022/01/29 09:20:51;;;;;;;10.35;7.18;;;;;;;0.20;100.00;93689.72;5029970;28;20053;-81
2022/01/29 09:23:19;;;;;;;9.60;6.47;;;;;;;0.06;100.00;93685.06;5030119;28;20049;-80
2022/01/29 09:25:46;;;;;;;12.73;8.25;;;;;;;0.38;100.00;93699.91;5030035;28;20099;-81
2022/01/29 09:28:14;;;;;;;12.75;8.80;;;;;;;0.13;100.00;93676.00;5029513;28;20493;-80
2022/01/29 09:30:42;;;;;;;48.05;42.92;;;;;;;0.23;100.00;93670.97;5029555;28;20053;-81
2022/01/29 09:33:10;;;;;;;16.70;14.02;;;;;;;0.51;100.00;93708.97;5030102;28;20058;-80
2022/01/29 09:35:38;;;;;;;10.00;7.13;;;;;;;0.26;100.00;93699.28;5029869;28;20095;-80
2022/01/29 09:38:05;;;;;;;9.98;6.75;;;;;;;0.36;100.00;93708.56;5029860;28;20055;-80
2022/01/29 09:40:34;;;;;;;8.43;6.45;;;;;;;-0.37;100.00;93631.50;5029240;28;20057;-81
2022/01/29 09:43:02;;;;;;;7.65;5.45;;;;;;;-0.18;100.00;93673.63;5029479;28;20049;-80
2022/01/29 09:45:30;;;;;;;7.65;4.93;;;;;;;-0.44;100.00;93648.88;5029566;28;20057;-81
2022/01/29 09:48:01;;;;;;;12.32;6.47;;;;;;;-0.02;100.00;93709.25;5024730;28;20416;-81
2022/01/29 09:50:29;;;;;;;8.07;5.55;;;;;;;-0.33;100.00;93671.47;5037961;28;20495;-81
2022/01/29 09:52:56;;;;;;;8.15;6.32;;;;;;;0.17;100.00;93706.84;5029724;28;20042;-81
2022/01/29 09:55:23;;;;;;;8.02;5.93;;;;;;;-0.22;100.00;93674.81;5030227;28;20058;-80
2022/01/29 09:57:51;;;;;;;9.60;6.10;;;;;;;-0.36;100.00;93654.09;5029665;28;20049;-80
2022/01/29 10:00:20;;;;;;;7.93;5.82;;;;;;;-0.45;100.00;93634.66;5030048;28;20045;-81
2022/01/29 10:03:16;;;;;;;4.90;3.75;;;;;;;-0.56;100.00;93633.84;5029679;28;20053;-81
2022/01/29 10:05:44;;;;;;;7.00;5.40;;;;;;;-0.29;100.00;93665.25;5027387;28;20056;-82
2022/01/29 10:08:12;;;;;;;6.45;4.95;;;;;;;-0.03;100.00;93706.84;5029316;28;20049;-81
2022/01/29 10:10:40;;;;;;;8.52;5.65;;;;;;;0.04;100.00;93704.59;5029246;28;20045;-81
2022/01/29 10:13:29;;;;;;;5.68;3.97;;;;;;;0.03;100.00;93708.84;5022052;28;20057;-81
2022/01/29 10:16:10;;;;;;;6.40;4.22;;;;;;;-0.01;100.00;93690.63;5010057;28;20058;-81
2022/01/29 10:18:38;;;;;;;10.57;6.65;;;;;;;0.04;100.00;93690.22;5009459;28;20050;-81
2022/01/29 10:21:11;;;;;;;13.20;7.70;;;;;;;0.23;100.00;93698.75;5009297;28;20069;-81
2022/01/29 10:23:38;;;;;;;10.32;6.65;;;;;;;0.19;100.00;93699.94;5009611;28;20432;-81
2022/01/29 10:26:07;;;;;;;6.75;5.43;;;;;;;0.12;100.00;93680.28;5009766;28;20457;-81
2022/01/29 10:28:35;;;;;;;7.93;4.63;;;;;;;0.06;100.00;93698.50;5028589;28;20497;-81
2022/01/29 10:31:04;;;;;;;8.63;5.47;;;;;;;-0.74;100.00;93587.50;5028759;28;20059;-82
2022/01/29 10:33:32;;;;;;;8.07;5.40;;;;;;;0.16;100.00;93703.53;5028644;28;20056;-82
2022/01/29 10:36:01;;;;;;;6.55;4.50;;;;;;;-0.01;100.00;93678.00;5028603;28;20049;-82
2022/01/29 10:38:29;;;;;;;8.93;5.63;;;;;;;0.11;100.00;93700.59;5028894;28;20402;-82
2022/01/29 10:41:17;;;;;;;7.70;5.63;;;;;;;-0.17;100.00;93619.66;5028800;28;20050;-82
2022/01/29 10:44:10;;;;;;;5.22;4.22;;;;;;;-0.06;100.00;93659.13;5028331;28;20145;-82
2022/01/29 10:46:39;;;;;;;8.02;5.68;;;;;;;0.61;100.00;93702.13;5025691;28;20054;-82
2022/01/29 10:49:07;;;;;;;7.57;5.28;;;;;;;0.77;100.00;93693.19;5009467;28;20062;-82
2022/01/29 10:51:35;;;;;;;7.22;5.25;;;;;;;0.73;100.00;93695.19;5023176;28;20057;-82
2022/01/29 10:54:19;;;;;;;10.23;6.13;;;;;;;0.91;100.00;93677.59;5029314;28;20057;-82
2022/01/29 10:56:51;;;;;;;8.38;5.57;;;;;;;1.08;100.00;93665.13;5029292;28;20064;-83
2022/01/29 10:59:20;;;;;;;8.65;5.35;;;;;;;0.60;100.00;93623.94;5029563;28;20049;-83
2022/01/29 11:01:51;;;;;;;11.18;6.13;;;;;;;0.64;100.00;93605.81;5031962;28;20092;-82
2022/01/29 11:04:18;;;;;;;11.07;6.80;;;;;;;1.17;100.00;93699.69;5033006;28;20194;-82
2022/01/29 11:06:47;;;;;;;9.68;6.22;;;;;;;0.48;100.00;93625.81;5030873;28;20515;-82
2022/01/29 11:09:14;;;;;;;11.77;7.72;;;;;;;0.44;100.00;93680.09;5032700;28;20092;-82
2022/01/29 11:11:42;;;;;;;8.07;5.55;;;;;;;0.41;100.00;93698.84;5033006;28;20050;-82
2022/01/29 11:14:11;;;;;;;8.45;6.30;;;;;;;-0.40;100.00;93617.41;5032695;28;20460;-82
2022/01/29 11:16:40;;;;;;;7.85;5.70;;;;;;;-0.68;100.00;93580.19;5033047;28;20464;-82
2022/01/29 11:19:13;;;;;;;7.43;5.18;;;;;;;-0.58;100.00;93617.25;5032432;28;20099;-82
2022/01/29 11:21:43;;;;;;;7.57;5.53;;;;;;;-0.48;100.00;93629.88;5031865;28;20054;-82
2022/01/29 11:24:12;;;;;;;10.02;6.05;;;;;;;-0.10;100.00;93688.13;5024419;28;20837;-81
2022/01/29 11:26:41;;;;;;;9.48;5.65;;;;;;;-0.17;100.00;93677.75;5031443;28;20064;-82